Aérodrome :
LOGIN :

S'inscrire | Disclaimer

   EN    FR    IT 

 










Légende :    VFR   VFR Marginal   IFR   IFR Intensif   IFR Très Intensif
Visi : 
Plafond : 
>= 8 km
>= 3000ft
5 à 8 km
1000 à 3000 ft
1500m à 5 km
500 à 1000 ft
800 à 1500m
200 à 500 ft
< 800m
< 200 ft
Symboles :   Orages  Brouillard  Fortes neiges  Fortes précipitations  Vent > 20 kt
SIGMETs :   Divers  Orages  Givrage  Turbulence  Onde Orograph.  Cendres Volcan.






- Altitude de l'aérodrome : 313 ft
- Code IATA : LEH


LFOH - Le Havre Octeville

DERNIER METAR :
  • 190430Z AUTO 20005KT 170V230 9999 BKN042 06/04 Q1017

METARs EXPIRÉS :
  • 190400Z AUTO 20005KT 9999 FEW039 06/05 Q1017
  • 190330Z AUTO 19005KT 9999 FEW040 BKN046 06/05 Q1017
  • 190300Z AUTO 20004KT 9999 BKN038 BKN044 06/05 Q1017
  • 190230Z AUTO 21005KT 9999 FEW030 BKN038 BKN044 06/05 Q1017
  • 190200Z AUTO 21004KT 9999 BKN039 06/04 Q1017

TAF TAF LFOH
Valide du 18 à 12h jusqu'au 19 à 12h UTC


181100Z 1812/1912 02012KT 9999 BKN020
BECMG 1818/1821 VRB03KT
PROB40
TEMPO 1903/1907 3000 BR
BECMG 1907/1909 16010KT
ATIS : +33 2 35 54 64 93



MET'MAP, la Météo Aéronautique d'un coup d'oeil ! - Copyright ORBIFLY Décembre 2007 - Disclaimer

ORBIFLY MET'MAP TEAM :

Programmation & Développement : Alexandra Zaïnal
Conception & Développement : Baudouin d'Aumeries
Co-Programmation & Développement : Marc-Olivier Méhu
Soutien technique & logistique : Manuel Goepfert

Contact : metmap@orbifly.com




SOURCES & CREDITS :

   NOAA